sensor_id;sensor_type;location;lat;lon;timestamp;P1;durP1;ratioP1;P2;durP2;ratioP2
18647;SDS011;9453;50.294;18.644;2023-06-24T04:03:03;26.27;;;12.70;;
18647;SDS011;9453;50.294;18.644;2023-06-24T04:05:33;25.92;;;12.55;;
18647;SDS011;9453;50.294;18.644;2023-06-24T04:08:00;26.45;;;14.90;;
18647;SDS011;9453;50.294;18.644;2023-06-24T04:10:30;23.55;;;15.07;;
18647;SDS011;9453;50.294;18.644;2023-06-24T04:12:57;28.35;;;15.40;;
18647;SDS011;9453;50.294;18.644;2023-06-24T04:15:24;35.25;;;16.70;;
18647;SDS011;9453;50.294;18.644;2023-06-24T04:17:51;26.70;;;15.38;;
18647;SDS011;9453;50.294;18.644;2023-06-24T04:20:20;28.73;;;15.48;;
18647;SDS011;9453;50.294;18.644;2023-06-24T04:22:47;25.83;;;14.27;;
18647;SDS011;9453;50.294;18.644;2023-06-24T04:25:14;24.55;;;14.65;;
18647;SDS011;9453;50.294;18.644;2023-06-24T04:27:44;22.88;;;13.90;;
18647;SDS011;9453;50.294;18.644;2023-06-24T04:30:11;25.88;;;14.48;;
18647;SDS011;9453;50.294;18.644;2023-06-24T04:32:39;33.58;;;15.68;;
18647;SDS011;9453;50.294;18.644;2023-06-24T04:35:07;23.50;;;13.75;;
18647;SDS011;9453;50.294;18.644;2023-06-24T04:37:35;26.00;;;14.27;;
18647;SDS011;9453;50.294;18.644;2023-06-24T04:40:03;23.38;;;13.80;;
18647;SDS011;9453;50.294;18.644;2023-06-24T04:42:31;28.98;;;13.70;;
18647;SDS011;9453;50.294;18.644;2023-06-24T04:44:58;26.80;;;13.55;;
18647;SDS011;9453;50.294;18.644;2023-06-24T04:47:26;24.85;;;13.27;;
18647;SDS011;9453;50.294;18.644;2023-06-24T04:49:52;24.25;;;13.95;;
18647;SDS011;9453;50.294;18.644;2023-06-24T04:52:19;20.92;;;12.77;;
18647;SDS011;9453;50.294;18.644;2023-06-24T04:54:48;21.73;;;13.40;;
18647;SDS011;9453;50.294;18.644;2023-06-24T04:57:22;19.65;;;10.88;;
18647;SDS011;9453;50.294;18.644;2023-06-24T04:59:50;22.23;;;9.10;;
18647;SDS011;9453;50.294;18.644;2023-06-24T05:02:18;17.58;;;8.55;;
18647;SDS011;9453;50.294;18.644;2023-06-24T05:04:45;11.18;;;7.63;;
18647;SDS011;9453;50.294;18.644;2023-06-24T05:07:12;18.70;;;7.80;;
18647;SDS011;9453;50.294;18.644;2023-06-24T05:09:39;14.00;;;7.63;;
18647;SDS011;9453;50.294;18.644;2023-06-24T05:12:09;16.02;;;7.90;;
18647;SDS011;9453;50.294;18.644;2023-06-24T05:14:36;14.40;;;7.68;;
18647;SDS011;9453;50.294;18.644;2023-06-24T05:17:03;14.82;;;8.27;;
18647;SDS011;9453;50.294;18.644;2023-06-24T05:19:31;19.85;;;7.75;;
18647;SDS011;9453;50.294;18.644;2023-06-24T05:21:58;13.60;;;7.50;;
18647;SDS011;9453;50.294;18.644;2023-06-24T05:24:26;13.27;;;7.45;;
18647;SDS011;9453;50.294;18.644;2023-06-24T05:26:53;12.13;;;7.13;;
18647;SDS011;9453;50.294;18.644;2023-06-24T05:29:21;10.77;;;6.68;;
18647;SDS011;9453;50.294;18.644;2023-06-24T05:31:48;16.00;;;6.47;;
18647;SDS011;9453;50.294;18.644;2023-06-24T05:34:15;16.33;;;7.20;;
18647;SDS011;9453;50.294;18.644;2023-06-24T05:36:42;11.45;;;6.60;;
18647;SDS011;9453;50.294;18.644;2023-06-24T05:39:09;13.23;;;7.15;;
18647;SDS011;9453;50.294;18.644;2023-06-24T05:41:37;11.88;;;6.45;;
18647;SDS011;9453;50.294;18.644;2023-06-24T05:44:06;10.68;;;6.32;;
18647;SDS011;9453;50.294;18.644;2023-06-24T05:46:35;12.50;;;6.43;;
18647;SDS011;9453;50.294;18.644;2023-06-24T05:49:03;12.38;;;6.63;;
18647;SDS011;9453;50.294;18.644;2023-06-24T05:51:30;11.52;;;6.72;;
18647;SDS011;9453;50.294;18.644;2023-06-24T05:53:57;13.15;;;6.43;;
18647;SDS011;9453;50.294;18.644;2023-06-24T05:56:24;10.95;;;7.00;;
18647;SDS011;9453;50.294;18.644;2023-06-24T05:58:52;12.35;;;6.25;;
18647;SDS011;9453;50.294;18.644;2023-06-24T06:01:18;12.88;;;6.72;;
18647;SDS011;9453;50.294;18.644;2023-06-24T06:03:47;9.60;;;6.22;;
18647;SDS011;9453;50.294;18.644;2023-06-24T06:06:14;10.95;;;6.22;;
18647;SDS011;9453;50.294;18.644;2023-06-24T06:08:41;17.20;;;6.40;;
18647;SDS011;9453;50.294;18.644;2023-06-24T06:11:08;11.63;;;6.18;;
18647;SDS011;9453;50.294;18.644;2023-06-24T06:13:35;11.38;;;6.55;;
18647;SDS011;9453;50.294;18.644;2023-06-24T06:16:02;14.40;;;6.55;;
18647;SDS011;9453;50.294;18.644;2023-06-24T06:18:29;13.32;;;6.82;;
18647;SDS011;9453;50.294;18.644;2023-06-24T06:20:58;11.30;;;6.70;;
18647;SDS011;9453;50.294;18.644;2023-06-24T06:23:25;13.38;;;7.18;;
18647;SDS011;9453;50.294;18.644;2023-06-24T06:25:52;11.35;;;7.03;;
18647;SDS011;9453;50.294;18.644;2023-06-24T06:28:19;17.00;;;7.22;;
18647;SDS011;9453;50.294;18.644;2023-06-24T06:30:46;12.50;;;6.97;;
18647;SDS011;9453;50.294;18.644;2023-06-24T06:33:13;16.42;;;6.57;;
18647;SDS011;9453;50.294;18.644;2023-06-24T06:35:40;12.65;;;7.18;;
18647;SDS011;9453;50.294;18.644;2023-06-24T06:38:09;12.73;;;6.85;;
18647;SDS011;9453;50.294;18.644;2023-06-24T06:40:36;14.20;;;6.88;;
18647;SDS011;9453;50.294;18.644;2023-06-24T06:43:03;11.10;;;6.82;;
18647;SDS011;9453;50.294;18.644;2023-06-24T06:45:30;10.27;;;7.32;;
18647;SDS011;9453;50.294;18.644;2023-06-24T06:47:57;13.43;;;7.25;;
18647;SDS011;9453;50.294;18.644;2023-06-24T06:50:24;12.60;;;7.82;;
18647;SDS011;9453;50.294;18.644;2023-06-24T06:52:51;19.40;;;7.90;;
18647;SDS011;9453;50.294;18.644;2023-06-24T06:55:19;18.35;;;8.20;;
18647;SDS011;9453;50.294;18.644;2023-06-24T06:57:46;18.73;;;8.07;;
18647;SDS011;9453;50.294;18.644;2023-06-24T07:00:14;15.15;;;8.23;;
18647;SDS011;9453;50.294;18.644;2023-06-24T07:02:41;13.48;;;8.18;;
18647;SDS011;9453;50.294;18.644;2023-06-24T07:05:08;10.45;;;6.82;;
18647;SDS011;9453;50.294;18.644;2023-06-24T07:07:36;13.30;;;8.30;;
18647;SDS011;9453;50.294;18.644;2023-06-24T07:10:03;12.70;;;7.45;;
18647;SDS011;9453;50.294;18.644;2023-06-24T07:12:33;12.82;;;7.82;;
18647;SDS011;9453;50.294;18.644;2023-06-24T07:15:00;11.38;;;7.95;;
18647;SDS011;9453;50.294;18.644;2023-06-24T07:17:27;11.98;;;8.02;;
18647;SDS011;9453;50.294;18.644;2023-06-24T07:19:54;12.75;;;7.38;;
18647;SDS011;9453;50.294;18.644;2023-06-24T07:22:21;14.68;;;8.02;;
18647;SDS011;9453;50.294;18.644;2023-06-24T07:24:48;11.95;;;6.88;;
18647;SDS011;9453;50.294;18.644;2023-06-24T07:27:15;16.27;;;7.18;;
18647;SDS011;9453;50.294;18.644;2023-06-24T07:29:43;11.77;;;7.63;;
18647;SDS011;9453;50.294;18.644;2023-06-24T07:32:10;12.77;;;7.03;;
18647;SDS011;9453;50.294;18.644;2023-06-24T07:34:38;15.63;;;7.35;;
18647;SDS011;9453;50.294;18.644;2023-06-24T07:37:05;13.73;;;7.00;;
18647;SDS011;9453;50.294;18.644;2023-06-24T07:39:32;13.32;;;7.95;;
18647;SDS011;9453;50.294;18.644;2023-06-24T07:41:59;14.82;;;7.30;;
18647;SDS011;9453;50.294;18.644;2023-06-24T07:44:26;11.20;;;6.80;;
18647;SDS011;9453;50.294;18.644;2023-06-24T07:46:54;12.60;;;6.45;;
18647;SDS011;9453;50.294;18.644;2023-06-24T07:49:22;10.55;;;6.55;;
18647;SDS011;9453;50.294;18.644;2023-06-24T07:51:49;9.43;;;6.18;;
18647;SDS011;9453;50.294;18.644;2023-06-24T07:54:16;14.32;;;6.78;;
18647;SDS011;9453;50.294;18.644;2023-06-24T07:56:43;10.65;;;6.50;;
18647;SDS011;9453;50.294;18.644;2023-06-24T07:59:10;9.55;;;6.30;;
18647;SDS011;9453;50.294;18.644;2023-06-24T08:01:38;11.90;;;6.35;;
18647;SDS011;9453;50.294;18.644;2023-06-24T08:04:06;10.98;;;5.93;;
18647;SDS011;9453;50.294;18.644;2023-06-24T08:06:33;8.43;;;5.65;;
18647;SDS011;9453;50.294;18.644;2023-06-24T08:09:01;13.70;;;6.53;;
18647;SDS011;9453;50.294;18.644;2023-06-24T08:11:28;11.48;;;5.53;;
18647;SDS011;9453;50.294;18.644;2023-06-24T08:13:55;12.85;;;6.15;;
18647;SDS011;9453;50.294;18.644;2023-06-24T08:16:22;18.27;;;6.75;;
18647;SDS011;9453;50.294;18.644;2023-06-24T08:18:49;11.98;;;6.20;;
18647;SDS011;9453;50.294;18.644;2023-06-24T08:21:21;8.25;;;6.03;;
18647;SDS011;9453;50.294;18.644;2023-06-24T08:23:48;12.23;;;5.70;;
18647;SDS011;9453;50.294;18.644;2023-06-24T08:26:16;8.30;;;5.75;;
18647;SDS011;9453;50.294;18.644;2023-06-24T08:28:43;10.52;;;5.82;;
18647;SDS011;9453;50.294;18.644;2023-06-24T08:31:12;9.70;;;6.07;;
18647;SDS011;9453;50.294;18.644;2023-06-24T08:33:41;12.05;;;6.38;;
18647;SDS011;9453;50.294;18.644;2023-06-24T08:36:10;9.85;;;5.90;;
18647;SDS011;9453;50.294;18.644;2023-06-24T08:38:39;10.65;;;6.00;;
18647;SDS011;9453;50.294;18.644;2023-06-24T08:41:07;16.92;;;6.60;;
18647;SDS011;9453;50.294;18.644;2023-06-24T08:43:37;9.05;;;5.65;;
18647;SDS011;9453;50.294;18.644;2023-06-24T08:46:05;8.10;;;5.45;;
18647;SDS011;9453;50.294;18.644;2023-06-24T08:48:32;9.75;;;6.18;;
18647;SDS011;9453;50.294;18.644;2023-06-24T08:51:05;9.85;;;6.10;;
18647;SDS011;9453;50.294;18.644;2023-06-24T08:53:34;8.40;;;5.45;;
18647;SDS011;9453;50.294;18.644;2023-06-24T08:56:05;11.63;;;5.90;;
18647;SDS011;9453;50.294;18.644;2023-06-24T08:58:33;11.85;;;6.22;;
18647;SDS011;9453;50.294;18.644;2023-06-24T09:01:00;10.55;;;5.65;;
18647;SDS011;9453;50.294;18.644;2023-06-24T09:03:28;7.70;;;5.32;;
18647;SDS011;9453;50.294;18.644;2023-06-24T09:05:55;8.95;;;5.07;;
18647;SDS011;9453;50.294;18.644;2023-06-24T09:08:22;8.57;;;5.30;;
18647;SDS011;9453;50.294;18.644;2023-06-24T09:10:52;10.05;;;5.70;;
18647;SDS011;9453;50.294;18.644;2023-06-24T09:13:22;11.00;;;5.63;;
18647;SDS011;9453;50.294;18.644;2023-06-24T09:15:59;8.10;;;5.35;;
18647;SDS011;9453;50.294;18.644;2023-06-24T09:18:35;11.80;;;5.38;;
18647;SDS011;9453;50.294;18.644;2023-06-24T09:21:02;8.32;;;5.15;;
18647;SDS011;9453;50.294;18.644;2023-06-24T09:23:29;9.30;;;5.22;;
18647;SDS011;9453;50.294;18.644;2023-06-24T09:26:02;10.23;;;5.60;;
18647;SDS011;9453;50.294;18.644;2023-06-24T09:28:31;10.38;;;6.05;;
18647;SDS011;9453;50.294;18.644;2023-06-24T09:31:05;11.82;;;5.50;;
18647;SDS011;9453;50.294;18.644;2023-06-24T09:33:33;8.30;;;5.47;;
18647;SDS011;9453;50.294;18.644;2023-06-24T09:36:01;9.52;;;5.18;;
18647;SDS011;9453;50.294;18.644;2023-06-24T09:38:33;10.73;;;6.13;;
18647;SDS011;9453;50.294;18.644;2023-06-24T09:41:02;11.95;;;5.93;;
18647;SDS011;9453;50.294;18.644;2023-06-24T09:43:31;9.23;;;5.20;;
18647;SDS011;9453;50.294;18.644;2023-06-24T09:46:02;9.65;;;5.60;;
18647;SDS011;9453;50.294;18.644;2023-06-24T09:48:29;7.07;;;4.88;;
18647;SDS011;9453;50.294;18.644;2023-06-24T09:50:58;8.73;;;5.38;;
18647;SDS011;9453;50.294;18.644;2023-06-24T09:59:54;6.85;;;4.38;;
18647;SDS011;9453;50.294;18.644;2023-06-24T10:02:21;8.15;;;4.95;;
18647;SDS011;9453;50.294;18.644;2023-06-24T10:04:48;8.88;;;4.93;;
18647;SDS011;9453;50.294;18.644;2023-06-24T10:07:17;11.02;;;4.75;;
18647;SDS011;9453;50.294;18.644;2023-06-24T10:09:44;8.52;;;4.60;;
18647;SDS011;9453;50.294;18.644;2023-06-24T10:12:11;6.82;;;4.45;;
18647;SDS011;9453;50.294;18.644;2023-06-24T10:14:38;8.75;;;5.20;;
18647;SDS011;9453;50.294;18.644;2023-06-24T10:17:07;9.23;;;4.75;;
18647;SDS011;9453;50.294;18.644;2023-06-24T10:19:37;7.43;;;4.30;;
18647;SDS011;9453;50.294;18.644;2023-06-24T10:22:07;7.47;;;4.30;;
18647;SDS011;9453;50.294;18.644;2023-06-24T10:24:36;10.18;;;4.75;;
18647;SDS011;9453;50.294;18.644;2023-06-24T10:27:08;7.22;;;4.18;;
18647;SDS011;9453;50.294;18.644;2023-06-24T10:29:41;8.75;;;4.78;;
18647;SDS011;9453;50.294;18.644;2023-06-24T10:32:21;7.85;;;4.25;;
18647;SDS011;9453;50.294;18.644;2023-06-24T10:34:53;7.43;;;4.95;;
18647;SDS011;9453;50.294;18.644;2023-06-24T10:37:22;8.20;;;4.53;;
18647;SDS011;9453;50.294;18.644;2023-06-24T10:39:50;7.15;;;4.60;;
18647;SDS011;9453;50.294;18.644;2023-06-24T10:45:14;8.00;;;4.70;;
18647;SDS011;9453;50.294;18.644;2023-06-24T10:47:45;8.35;;;4.45;;
18647;SDS011;9453;50.294;18.644;2023-06-24T10:50:13;10.57;;;4.65;;
18647;SDS011;9453;50.294;18.644;2023-06-24T10:52:41;6.72;;;4.82;;
18647;SDS011;9453;50.294;18.644;2023-06-24T10:55:10;8.98;;;5.35;;
18647;SDS011;9453;50.294;18.644;2023-06-24T10:57:39;10.48;;;5.60;;
18647;SDS011;9453;50.294;18.644;2023-06-24T11:00:07;6.95;;;4.68;;
18647;SDS011;9453;50.294;18.644;2023-06-24T11:02:35;8.57;;;4.72;;
18647;SDS011;9453;50.294;18.644;2023-06-24T11:05:05;8.18;;;4.30;;
18647;SDS011;9453;50.294;18.644;2023-06-24T11:07:33;8.05;;;5.10;;
18647;SDS011;9453;50.294;18.644;2023-06-24T11:10:02;6.15;;;4.00;;
18647;SDS011;9453;50.294;18.644;2023-06-24T11:12:31;7.78;;;4.10;;
18647;SDS011;9453;50.294;18.644;2023-06-24T11:14:59;7.82;;;4.50;;
18647;SDS011;9453;50.294;18.644;2023-06-24T11:17:28;6.70;;;4.18;;
18647;SDS011;9453;50.294;18.644;2023-06-24T11:19:56;6.88;;;3.75;;
18647;SDS011;9453;50.294;18.644;2023-06-24T11:22:26;5.05;;;3.67;;
18647;SDS011;9453;50.294;18.644;2023-06-24T11:24:54;9.82;;;3.95;;
18647;SDS011;9453;50.294;18.644;2023-06-24T11:27:24;6.07;;;3.92;;
18647;SDS011;9453;50.294;18.644;2023-06-24T11:29:52;6.82;;;4.00;;
18647;SDS011;9453;50.294;18.644;2023-06-24T11:32:21;7.15;;;3.63;;
18647;SDS011;9453;50.294;18.644;2023-06-24T11:34:48;7.65;;;3.72;;
18647;SDS011;9453;50.294;18.644;2023-06-24T11:37:16;6.82;;;3.88;;
18647;SDS011;9453;50.294;18.644;2023-06-24T11:39:55;7.95;;;3.30;;
18647;SDS011;9453;50.294;18.644;2023-06-24T11:42:28;6.35;;;3.65;;
18647;SDS011;9453;50.294;18.644;2023-06-24T11:44:59;5.18;;;3.25;;
18647;SDS011;9453;50.294;18.644;2023-06-24T11:47:27;8.52;;;4.03;;
18647;SDS011;9453;50.294;18.644;2023-06-24T11:49:58;6.05;;;3.30;;
18647;SDS011;9453;50.294;18.644;2023-06-24T11:52:38;5.93;;;3.20;;
18647;SDS011;9453;50.294;18.644;2023-06-24T11:55:15;6.82;;;3.25;;
18647;SDS011;9453;50.294;18.644;2023-06-24T11:57:46;7.63;;;3.10;;
18647;SDS011;9453;50.294;18.644;2023-06-24T12:00:18;6.85;;;3.65;;
18647;SDS011;9453;50.294;18.644;2023-06-24T12:02:48;6.63;;;3.13;;
18647;SDS011;9453;50.294;18.644;2023-06-24T12:05:19;4.18;;;2.80;;
18647;SDS011;9453;50.294;18.644;2023-06-24T12:07:51;4.80;;;3.50;;
18647;SDS011;9453;50.294;18.644;2023-06-24T12:10:22;7.25;;;3.28;;
18647;SDS011;9453;50.294;18.644;2023-06-24T12:12:49;8.00;;;3.63;;
18647;SDS011;9453;50.294;18.644;2023-06-24T12:15:16;7.07;;;3.08;;
18647;SDS011;9453;50.294;18.644;2023-06-24T12:17:43;4.65;;;2.65;;
18647;SDS011;9453;50.294;18.644;2023-06-24T12:20:11;6.05;;;3.40;;
18647;SDS011;9453;50.294;18.644;2023-06-24T12:22:40;6.63;;;2.97;;
18647;SDS011;9453;50.294;18.644;2023-06-24T12:25:07;4.03;;;2.75;;
18647;SDS011;9453;50.294;18.644;2023-06-24T12:27:37;3.47;;;2.63;;
18647;SDS011;9453;50.294;18.644;2023-06-24T12:30:06;4.80;;;3.10;;
18647;SDS011;9453;50.294;18.644;2023-06-24T12:32:34;8.55;;;3.25;;
18647;SDS011;9453;50.294;18.644;2023-06-24T12:35:01;3.83;;;2.60;;
18647;SDS011;9453;50.294;18.644;2023-06-24T12:37:29;5.93;;;2.90;;
18647;SDS011;9453;50.294;18.644;2023-06-24T12:39:58;6.28;;;2.78;;
18647;SDS011;9453;50.294;18.644;2023-06-24T12:42:25;4.20;;;2.83;;
18647;SDS011;9453;50.294;18.644;2023-06-24T12:44:53;5.03;;;2.70;;
18647;SDS011;9453;50.294;18.644;2023-06-24T12:47:20;5.10;;;3.50;;
18647;SDS011;9453;50.294;18.644;2023-06-24T12:49:47;5.38;;;2.80;;
18647;SDS011;9453;50.294;18.644;2023-06-24T12:52:15;5.03;;;3.00;;
18647;SDS011;9453;50.294;18.644;2023-06-24T12:54:43;5.82;;;2.78;;
18647;SDS011;9453;50.294;18.644;2023-06-24T12:57:10;4.00;;;2.60;;
18647;SDS011;9453;50.294;18.644;2023-06-24T12:59:37;5.45;;;3.22;;
18647;SDS011;9453;50.294;18.644;2023-06-24T13:02:05;4.68;;;2.92;;
18647;SDS011;9453;50.294;18.644;2023-06-24T13:04:33;4.53;;;3.13;;
18647;SDS011;9453;50.294;18.644;2023-06-24T13:07:00;4.50;;;2.88;;
18647;SDS011;9453;50.294;18.644;2023-06-24T13:09:27;4.30;;;3.20;;
18647;SDS011;9453;50.294;18.644;2023-06-24T13:11:54;7.57;;;3.35;;
18647;SDS011;9453;50.294;18.644;2023-06-24T13:14:21;5.00;;;2.95;;
18647;SDS011;9453;50.294;18.644;2023-06-24T13:16:50;5.15;;;3.08;;
18647;SDS011;9453;50.294;18.644;2023-06-24T13:19:19;7.25;;;3.40;;
18647;SDS011;9453;50.294;18.644;2023-06-24T13:21:46;5.75;;;3.25;;
18647;SDS011;9453;50.294;18.644;2023-06-24T13:24:13;5.22;;;3.10;;
18647;SDS011;9453;50.294;18.644;2023-06-24T13:26:40;7.38;;;3.67;;
18647;SDS011;9453;50.294;18.644;2023-06-24T13:29:07;4.88;;;3.15;;
18647;SDS011;9453;50.294;18.644;2023-06-24T13:31:34;6.35;;;3.53;;
18647;SDS011;9453;50.294;18.644;2023-06-24T13:34:01;5.18;;;3.20;;
18647;SDS011;9453;50.294;18.644;2023-06-24T13:36:31;5.18;;;3.38;;
18647;SDS011;9453;50.294;18.644;2023-06-24T13:39:00;6.15;;;3.65;;
18647;SDS011;9453;50.294;18.644;2023-06-24T13:41:28;5.70;;;3.25;;
18647;SDS011;9453;50.294;18.644;2023-06-24T13:43:58;11.13;;;3.60;;
18647;SDS011;9453;50.294;18.644;2023-06-24T13:46:26;6.10;;;3.25;;
18647;SDS011;9453;50.294;18.644;2023-06-24T13:48:53;4.68;;;3.22;;
18647;SDS011;9453;50.294;18.644;2023-06-24T13:51:21;5.65;;;3.40;;
18647;SDS011;9453;50.294;18.644;2023-06-24T13:53:50;6.38;;;3.28;;
18647;SDS011;9453;50.294;18.644;2023-06-24T13:56:19;5.95;;;3.17;;
18647;SDS011;9453;50.294;18.644;2023-06-24T13:58:47;9.05;;;3.17;;
18647;SDS011;9453;50.294;18.644;2023-06-24T14:01:15;5.13;;;3.42;;
18647;SDS011;9453;50.294;18.644;2023-06-24T14:03:42;4.68;;;3.17;;
18647;SDS011;9453;50.294;18.644;2023-06-24T14:06:10;5.40;;;3.17;;
18647;SDS011;9453;50.294;18.644;2023-06-24T14:08:40;5.07;;;2.70;;
18647;SDS011;9453;50.294;18.644;2023-06-24T14:11:09;6.85;;;2.97;;
18647;SDS011;9453;50.294;18.644;2023-06-24T14:13:36;4.57;;;2.90;;
18647;SDS011;9453;50.294;18.644;2023-06-24T14:16:04;4.75;;;3.58;;
18647;SDS011;9453;50.294;18.644;2023-06-24T14:18:31;11.27;;;3.20;;
18647;SDS011;9453;50.294;18.644;2023-06-24T14:21:00;6.80;;;3.97;;
18647;SDS011;9453;50.294;18.644;2023-06-24T14:23:30;8.18;;;3.72;;
18647;SDS011;9453;50.294;18.644;2023-06-24T14:29:05;5.85;;;3.50;;
18647;SDS011;9453;50.294;18.644;2023-06-24T14:31:33;6.95;;;3.38;;
18647;SDS011;9453;50.294;18.644;2023-06-24T14:34:01;6.30;;;3.58;;
18647;SDS011;9453;50.294;18.644;2023-06-24T14:36:27;7.97;;;3.88;;
18647;SDS011;9453;50.294;18.644;2023-06-24T14:38:55;6.15;;;3.22;;
18647;SDS011;9453;50.294;18.644;2023-06-24T14:41:23;6.10;;;3.88;;
18647;SDS011;9453;50.294;18.644;2023-06-24T14:43:50;8.30;;;3.97;;
18647;SDS011;9453;50.294;18.644;2023-06-24T14:46:17;8.18;;;4.07;;
18647;SDS011;9453;50.294;18.644;2023-06-24T14:48:45;5.28;;;3.55;;
18647;SDS011;9453;50.294;18.644;2023-06-24T14:51:12;9.63;;;4.60;;
18647;SDS011;9453;50.294;18.644;2023-06-24T14:53:39;6.20;;;4.15;;
18647;SDS011;9453;50.294;18.644;2023-06-24T14:56:06;6.60;;;4.30;;
18647;SDS011;9453;50.294;18.644;2023-06-24T14:58:35;8.43;;;4.25;;
18647;SDS011;9453;50.294;18.644;2023-06-24T15:01:02;6.60;;;3.70;;
18647;SDS011;9453;50.294;18.644;2023-06-24T15:03:29;7.28;;;4.10;;
18647;SDS011;9453;50.294;18.644;2023-06-24T15:05:56;8.95;;;4.10;;
18647;SDS011;9453;50.294;18.644;2023-06-24T15:08:25;6.82;;;3.72;;
18647;SDS011;9453;50.294;18.644;2023-06-24T15:10:52;6.18;;;3.92;;
18647;SDS011;9453;50.294;18.644;2023-06-24T15:13:19;9.18;;;5.13;;
18647;SDS011;9453;50.294;18.644;2023-06-24T15:15:47;10.27;;;5.18;;
18647;SDS011;9453;50.294;18.644;2023-06-24T15:18:15;5.15;;;3.58;;
18647;SDS011;9453;50.294;18.644;2023-06-24T15:20:43;6.63;;;4.10;;
18647;SDS011;9453;50.294;18.644;2023-06-24T15:23:13;6.07;;;3.97;;
18647;SDS011;9453;50.294;18.644;2023-06-24T15:25:40;8.98;;;4.50;;
18647;SDS011;9453;50.294;18.644;2023-06-24T15:28:07;10.23;;;4.93;;
18647;SDS011;9453;50.294;18.644;2023-06-24T15:30:34;5.75;;;4.38;;
18647;SDS011;9453;50.294;18.644;2023-06-24T15:33:03;8.02;;;4.35;;
18647;SDS011;9453;50.294;18.644;2023-06-24T15:35:31;6.75;;;4.32;;
18647;SDS011;9453;50.294;18.644;2023-06-24T15:37:58;9.43;;;4.82;;
18647;SDS011;9453;50.294;18.644;2023-06-24T15:40:25;7.65;;;4.55;;
18647;SDS011;9453;50.294;18.644;2023-06-24T15:42:52;7.50;;;3.72;;
18647;SDS011;9453;50.294;18.644;2023-06-24T15:45:19;7.00;;;3.95;;
18647;SDS011;9453;50.294;18.644;2023-06-24T15:47:47;9.07;;;4.90;;
18647;SDS011;9453;50.294;18.644;2023-06-24T15:50:16;9.75;;;4.90;;
18647;SDS011;9453;50.294;18.644;2023-06-24T15:52:43;8.32;;;4.50;;
18647;SDS011;9453;50.294;18.644;2023-06-24T15:55:10;6.47;;;4.20;;
18647;SDS011;9453;50.294;18.644;2023-06-24T15:57:38;7.30;;;4.43;;
18647;SDS011;9453;50.294;18.644;2023-06-24T16:00:06;8.48;;;4.65;;
18647;SDS011;9453;50.294;18.644;2023-06-24T16:02:33;6.45;;;4.32;;
18647;SDS011;9453;50.294;18.644;2023-06-24T16:05:00;11.27;;;4.55;;
18647;SDS011;9453;50.294;18.644;2023-06-24T16:07:32;6.57;;;4.55;;
18647;SDS011;9453;50.294;18.644;2023-06-24T16:09:59;9.00;;;4.78;;
18647;SDS011;9453;50.294;18.644;2023-06-24T16:12:27;9.00;;;3.88;;
18647;SDS011;9453;50.294;18.644;2023-06-24T16:14:54;6.63;;;4.00;;
18647;SDS011;9453;50.294;18.644;2023-06-24T16:17:22;7.82;;;4.32;;
18647;SDS011;9453;50.294;18.644;2023-06-24T16:19:49;4.45;;;3.58;;
18647;SDS011;9453;50.294;18.644;2023-06-24T16:22:19;7.43;;;3.90;;
18647;SDS011;9453;50.294;18.644;2023-06-24T16:24:47;5.97;;;3.83;;
18647;SDS011;9453;50.294;18.644;2023-06-24T16:27:14;6.13;;;4.38;;
18647;SDS011;9453;50.294;18.644;2023-06-24T16:29:41;6.30;;;3.60;;
18647;SDS011;9453;50.294;18.644;2023-06-24T16:32:08;6.25;;;4.28;;
18647;SDS011;9453;50.294;18.644;2023-06-24T16:34:35;5.95;;;4.10;;
18647;SDS011;9453;50.294;18.644;2023-06-24T16:37:03;8.50;;;4.10;;
18647;SDS011;9453;50.294;18.644;2023-06-24T16:39:30;6.47;;;3.85;;
18647;SDS011;9453;50.294;18.644;2023-06-24T16:41:58;4.40;;;2.95;;
18647;SDS011;9453;50.294;18.644;2023-06-24T16:44:25;7.38;;;3.97;;
18647;SDS011;9453;50.294;18.644;2023-06-24T16:46:55;5.82;;;3.58;;
18647;SDS011;9453;50.294;18.644;2023-06-24T16:49:21;6.63;;;3.25;;
18647;SDS011;9453;50.294;18.644;2023-06-24T16:51:48;6.50;;;3.72;;
18647;SDS011;9453;50.294;18.644;2023-06-24T16:54:15;4.43;;;2.97;;
18647;SDS011;9453;50.294;18.644;2023-06-24T16:56:43;7.05;;;3.28;;
18647;SDS011;9453;50.294;18.644;2023-06-24T16:59:11;4.10;;;2.83;;
18647;SDS011;9453;50.294;18.644;2023-06-24T17:01:38;3.75;;;2.58;;
18647;SDS011;9453;50.294;18.644;2023-06-24T17:04:05;5.43;;;3.33;;
18647;SDS011;9453;50.294;18.644;2023-06-24T17:06:32;5.35;;;3.30;;
18647;SDS011;9453;50.294;18.644;2023-06-24T17:08:59;5.45;;;3.80;;
18647;SDS011;9453;50.294;18.644;2023-06-24T17:11:26;5.18;;;3.47;;
18647;SDS011;9453;50.294;18.644;2023-06-24T17:13:53;5.95;;;3.83;;
18647;SDS011;9453;50.294;18.644;2023-06-24T17:16:22;4.75;;;3.00;;
18647;SDS011;9453;50.294;18.644;2023-06-24T17:18:49;5.57;;;3.05;;
18647;SDS011;9453;50.294;18.644;2023-06-24T17:21:20;5.95;;;3.90;;
18647;SDS011;9453;50.294;18.644;2023-06-24T17:23:47;5.50;;;3.47;;
18647;SDS011;9453;50.294;18.644;2023-06-24T17:26:14;4.72;;;3.10;;
18647;SDS011;9453;50.294;18.644;2023-06-24T17:28:41;5.43;;;3.00;;
18647;SDS011;9453;50.294;18.644;2023-06-24T17:31:09;11.18;;;3.47;;
18647;SDS011;9453;50.294;18.644;2023-06-24T17:33:37;11.30;;;4.15;;
18647;SDS011;9453;50.294;18.644;2023-06-24T17:36:04;4.45;;;2.80;;
18647;SDS011;9453;50.294;18.644;2023-06-24T17:38:32;4.28;;;2.65;;
18647;SDS011;9453;50.294;18.644;2023-06-24T17:40:59;4.40;;;2.60;;
18647;SDS011;9453;50.294;18.644;2023-06-24T17:43:26;6.50;;;3.50;;
18647;SDS011;9453;50.294;18.644;2023-06-24T17:45:53;5.03;;;2.83;;
18647;SDS011;9453;50.294;18.644;2023-06-24T17:48:20;5.28;;;3.67;;
18647;SDS011;9453;50.294;18.644;2023-06-24T17:50:48;4.50;;;2.97;;
18647;SDS011;9453;50.294;18.644;2023-06-24T17:53:15;4.95;;;3.35;;
18647;SDS011;9453;50.294;18.644;2023-06-24T17:55:44;4.85;;;3.13;;
18647;SDS011;9453;50.294;18.644;2023-06-24T17:58:11;4.15;;;3.03;;
18647;SDS011;9453;50.294;18.644;2023-06-24T18:00:38;4.15;;;2.88;;
18647;SDS011;9453;50.294;18.644;2023-06-24T18:03:06;5.18;;;3.17;;
18647;SDS011;9453;50.294;18.644;2023-06-24T18:05:33;4.40;;;3.03;;
18647;SDS011;9453;50.294;18.644;2023-06-24T18:08:03;4.70;;;3.20;;
18647;SDS011;9453;50.294;18.644;2023-06-24T18:10:30;4.10;;;3.35;;
18647;SDS011;9453;50.294;18.644;2023-06-24T18:12:57;4.88;;;3.03;;
18647;SDS011;9453;50.294;18.644;2023-06-24T18:15:25;4.03;;;2.95;;
18647;SDS011;9453;50.294;18.644;2023-06-24T18:17:52;5.40;;;3.47;;
18647;SDS011;9453;50.294;18.644;2023-06-24T18:20:19;6.05;;;3.97;;
18647;SDS011;9453;50.294;18.644;2023-06-24T18:22:46;4.45;;;3.25;;
18647;SDS011;9453;50.294;18.644;2023-06-24T18:25:15;3.88;;;2.80;;
18647;SDS011;9453;50.294;18.644;2023-06-24T18:27:42;6.00;;;3.78;;
18647;SDS011;9453;50.294;18.644;2023-06-24T18:30:09;5.95;;;4.07;;
18647;SDS011;9453;50.294;18.644;2023-06-24T18:32:37;6.75;;;3.60;;
18647;SDS011;9453;50.294;18.644;2023-06-24T18:35:04;6.30;;;4.00;;
18647;SDS011;9453;50.294;18.644;2023-06-24T18:37:32;6.25;;;3.83;;
18647;SDS011;9453;50.294;18.644;2023-06-24T18:39:59;5.75;;;4.07;;
18647;SDS011;9453;50.294;18.644;2023-06-24T18:42:28;5.78;;;3.90;;
18647;SDS011;9453;50.294;18.644;2023-06-24T18:44:56;4.57;;;3.10;;
18647;SDS011;9453;50.294;18.644;2023-06-24T18:47:23;7.22;;;4.15;;
18647;SDS011;9453;50.294;18.644;2023-06-24T18:49:50;6.25;;;4.30;;
18647;SDS011;9453;50.294;18.644;2023-06-24T18:52:17;7.03;;;4.57;;
18647;SDS011;9453;50.294;18.644;2023-06-24T18:54:44;5.93;;;3.83;;
18647;SDS011;9453;50.294;18.644;2023-06-24T18:57:12;5.43;;;3.95;;
18647;SDS011;9453;50.294;18.644;2023-06-24T18:59:42;6.40;;;4.55;;
18647;SDS011;9453;50.294;18.644;2023-06-24T19:02:10;11.55;;;5.55;;